Boyd Deep Canyon Reserve, California Weather observations

Data are for 10 minute period ending at time listed.
 Day   Time   Solar   Ave.   Ave.  Ave.  Vector  Max.   Baro.   Total    
  of    of     Rad.   Air    Rel.  Wind   Wind   Wind  Press.  Precip.   
Year   Day            Temp.  Hum.  Speed  Dir.   Gust                    
2015   (PST)  Kw/m2    F      %     mph   deg.    mph    mb.     in.     
-------------------------------------------------------------------------
  88    0:00   0.00   76.1    17    4.8    54     7.5   979.9    0.00 
  88    0:10   0.00   75.6    17    3.5    50     7.4   979.9    0.00 
  88    0:20   0.00   75.5    18    2.9    20     4.9   979.8    0.00 
  88    0:30   0.00   74.7    17    2.4   257     8.1   979.8    0.00 
  88    0:40   0.00   77.0    12    4.3   220     8.6   979.8    0.00 
  88    0:50   0.00   75.9    16    1.8    71     3.7   979.8    0.00 
  88    1:00   0.00   74.4    18    3.8    54     6.4   979.7    0.00 
  88    1:10   0.00   74.6    18    4.6    78     8.0   979.7    0.00 
  88    1:20   0.00   74.8    18    5.0    75     6.8   979.7    0.00 
  88    1:30   0.00   74.4    19    5.2    73     6.8   979.7    0.00 
  88    1:40   0.00   74.4    19    2.6    88     5.2   979.7    0.00 
  88    1:50   0.00   74.1    19    1.5   193     2.5   979.6    0.00 
  88    2:00   0.00   72.8    20    1.7    88     4.0   979.4    0.00 
  88    2:10   0.00   73.6    19    3.4    68     5.3   979.3    0.00 
  88    2:20   0.00   72.8    19    3.1    48     4.5   979.3    0.00 
  88    2:30   0.00   72.4    19    2.3    47     4.2   979.2    0.00 
  88    2:40   0.00   72.2    18    2.0    13     3.8   979.1    0.00 
  88    2:50   0.00   72.3    18    1.8    32     4.5   979.0    0.00 
  88    3:00   0.00   72.8    16    1.5    82     7.7   978.9    0.00 
  88    3:10   0.00   72.3    16    1.7    84     7.7   978.9    0.00 
  88    3:20   0.00   76.3    11    4.8   201     9.1   978.9    0.00 
  88    3:30   0.00   79.1     9    8.6   184    14.6   978.8    0.00 
  88    3:40   0.00   79.2     9    5.1   211    10.7   978.9    0.00 
  88    3:50   0.00   75.4    13    3.0    72     5.3   979.0    0.00 
  88    4:00   0.00   73.4    17    2.5    62     3.9   979.1    0.00 
  88    4:10   0.00   72.6    17    1.5   358     3.7   979.1    0.00 
  88    4:20   0.00   73.9    13    3.4   226     6.9   979.1    0.00 
  88    4:30   0.00   75.0    11    5.1   229    12.0   979.1    0.00 
  88    4:40   0.00   77.8     9    8.0   212    12.1   979.3    0.00 
  88    4:50   0.00   78.1    10    5.2   198    10.4   979.3    0.00 
  88    5:00   0.00   78.0    10    4.9   191    11.1   979.3    0.00 
  88    5:10   0.00   78.0    10    5.7   204     9.9   979.3    0.00 
  88    5:20   0.00   77.7     9    6.8   210    11.2   979.4    0.00 
  88    5:30   0.00   77.7     9    8.7   214    14.6   979.4    0.00 
  88    5:40   0.00   77.4    10    6.7   211    13.4   979.5    0.00 
  88    5:50   0.00   73.4    15    4.9    78     8.4   979.8    0.00 
  88    6:00   0.01   72.6    16    3.1    54     5.0   980.0    0.00 
  88    6:10   0.03   71.7    17    1.5    29     3.9   980.1    0.00 
  88    6:20   0.04   71.2    18    0.5    12     2.0   980.2    0.00 
  88    6:30   0.06   73.2    15    1.6   221     5.3   980.3    0.00 
  88    6:40   0.09   74.9    11    3.5   218     8.6   980.3    0.00 
  88    6:50   0.12   78.5     9    4.6   202     8.3   980.3    0.00 
  88    7:00   0.18   79.7     8    4.0   189     7.8   980.3    0.00 
  88    7:10   0.14   80.1     9    3.0   186     6.4   980.4    0.00 
  88    7:20   0.15   80.2     8    4.1   176     8.3   980.4    0.00 
  88    7:30   0.22   79.8    10    3.6   141     5.6   980.5    0.00 
  88    7:40   0.33   76.2    14    3.4    53     5.1   980.5    0.00 
  88    7:50   0.36   77.0    14    2.7    43     3.9   980.6    0.00 
  88    8:00   0.37   77.6    14    2.3    30     3.7   980.6    0.00 
  88    8:10   0.35   78.8    13    0.8    12     2.4   980.7    0.00 
  88    8:20   0.36   79.4    13    1.2    30     2.3   980.7    0.00 
  88    8:30   0.48   81.9    12    0.3    47     1.7   980.7    0.00 
  88    8:40   0.57   84.1    11    0.5   148     1.6   980.6    0.00 
  88    8:50   0.58   85.6    10    0.5    24     2.0   980.5    0.00 
  88    9:00   0.64   87.5     9    0.6   348     4.4   980.5    0.00 
  88    9:10   0.66   86.2     9    3.7     5     6.0   980.5    0.00 
  88    9:20   0.71   85.2    10    5.2   356     7.0   980.7    0.00 
  88    9:30   0.70   85.2    11    3.5   358     6.1   980.8    0.00 
  88    9:40   0.59   86.2     9    4.3   356     6.0   980.7    0.00 
  88    9:50   0.71   87.5     8    4.5   352     6.4   980.7    0.00 
  88   10:00   0.46   87.1     8    5.1   349     8.1   980.6    0.00 
  88   10:10   0.65   87.0     8    6.7     2     8.6   980.6    0.00 
  88   10:20   0.84   87.3     8    5.8   353     9.4   980.6    0.00 
  88   10:30   0.91   88.0     8    5.7   354    10.3   980.6    0.00 
  88   10:40   0.89   88.6     8    6.0   352     9.4   980.6    0.00 
  88   10:50   0.95   88.6     8    5.4   349     9.8   980.6    0.00 
  88   11:00   0.86   89.3     8    6.0    17    10.4   980.5    0.00 
  88   11:10   0.74   89.1     8    4.1   347     9.3   980.4    0.00 
  88   11:20   0.92   90.1     8    5.3    57    12.3   980.3    0.00 
  88   11:30   0.96   90.1     8    4.3    37    11.0   980.3    0.00 
  88   11:40   0.92   90.3     8    3.6    11     9.6   980.2    0.00 
  88   11:50   0.97   91.8     8    5.7   338     9.8   980.1    0.00 
  88   12:00   0.99   91.0     8    6.0   353    11.2   980.0    0.00 
  88   12:10   1.02   91.5     8    4.6    48    12.6   979.9    0.00 
  88   12:20   1.03   91.6     8    4.6    75    10.4   979.9    0.00 
  88   12:30   0.95   91.9     8    8.2    26    17.3   979.7    0.00 

Return to Boyd Deep Canyon Reserve graphs page.


Western Regional Climate Center,wrcc@dri.edu